Time;durP1;ratioP1;P1;durP2;ratioP2;P2;SDS_P1;SDS_P2;PMS_P1;PMS_P2;Temp;Humidity;BMP_temperature;BMP_pressure;BME280_temperature;BME280_humidity;BME280_pressure;Samples;Min_cycle;Max_cycle;Signal;HPM_P1;HPM_P2
2021/12/21 00:02:09;;;;;;;0.98;0.98;;;;;;;-16.71;89.99;102281.28;5013146;28;20057;-67
2021/12/21 00:04:36;;;;;;;1.45;1.42;;;;;;;-16.67;90.19;102280.75;5013077;28;20053;-68
2021/12/21 00:07:06;;;;;;;2.15;1.88;;;;;;;-16.89;89.84;102288.19;5012989;28;20046;-65
2021/12/21 00:09:32;;;;;;;1.25;1.15;;;;;;;-16.99;89.45;102281.59;5012886;28;20053;-65
2021/12/21 00:12:01;;;;;;;1.25;1.15;;;;;;;-16.84;89.47;102283.59;5012938;28;20484;-66
2021/12/21 00:14:38;;;;;;;1.45;1.35;;;;;;;-16.72;89.38;102287.88;5013121;28;20104;-66
2021/12/21 00:17:16;;;;;;;1.45;1.35;;;;;;;-16.66;89.22;102285.00;5012646;28;20488;-68
2021/12/21 00:19:52;;;;;;;1.17;1.17;;;;;;;-16.70;89.25;102288.84;5012827;28;20050;-65
2021/12/21 00:23:02;;;;;;;1.17;1.17;;;;;;;-16.92;88.58;102282.97;5012417;28;20081;-64
2021/12/21 00:25:24;;;;;;;1.58;1.48;;;;;;;-17.03;90.38;102281.22;5012620;28;20132;-68
2021/12/21 00:27:52;;;;;;;1.20;1.20;;;;;;;-16.87;91.08;102293.28;5012618;28;20050;-63
2021/12/21 00:30:19;;;;;;;1.80;1.40;;;;;;;-16.84;90.63;102283.59;5012513;28;20046;-64
2021/12/21 00:32:46;;;;;;;1.80;1.70;;;;;;;-16.98;90.27;102288.31;5012536;28;20046;-64
2021/12/21 00:35:13;;;;;;;1.65;1.55;;;;;;;-17.02;89.84;102288.81;5012220;28;20046;-67
2021/12/21 00:37:43;;;;;;;1.60;1.50;;;;;;;-17.05;90.53;102293.56;5012480;28;20049;-67
2021/12/21 00:40:11;;;;;;;1.83;1.55;;;;;;;-16.98;90.16;102293.28;5012609;28;20049;-69
2021/12/21 00:42:38;;;;;;;3.17;1.67;;;;;;;-17.02;90.76;102291.31;5012393;28;20057;-68
2021/12/21 00:45:06;;;;;;;3.13;1.52;;;;;;;-17.05;90.44;102293.56;5012353;28;20057;-68
2021/12/21 00:47:35;;;;;;;1.90;1.80;;;;;;;-17.20;88.97;102290.69;5012579;28;20053;-69
2021/12/21 00:50:03;;;;;;;1.25;1.23;;;;;;;-17.28;89.98;102291.69;5012431;28;20444;-68
2021/12/21 00:52:31;;;;;;;1.33;1.33;;;;;;;-17.29;91.00;102287.44;5012266;28;20050;-67
2021/12/21 00:54:59;;;;;;;1.70;1.60;;;;;;;-17.40;90.98;102285.72;5012490;28;20049;-68
2021/12/21 00:57:26;;;;;;;1.00;1.00;;;;;;;-17.00;91.56;102287.34;5012100;28;20057;-69
2021/12/21 00:59:53;;;;;;;1.52;1.42;;;;;;;-17.08;89.62;102293.31;5012121;28;20050;-69
2021/12/21 01:02:20;;;;;;;1.15;1.10;;;;;;;-17.19;90.56;102301.50;5012013;28;20528;-68
2021/12/21 01:04:49;;;;;;;;;;;;;;;-17.16;90.80;102299.25;5012958;28;20054;-68
2021/12/21 01:07:23;;;;;;;1.00;1.00;;;;;;;-16.93;91.14;102296.16;5012097;28;19921;-68
2021/12/21 01:12:47;;;;;;;3.17;1.58;;;;;;;-17.04;90.12;102297.78;5011792;28;20045;-68
2021/12/21 01:15:23;;;;;;;1.52;1.42;;;;;;;-17.16;90.69;102306.72;5012316;28;20451;-68
2021/12/21 01:17:56;;;;;;;1.73;1.52;;;;;;;-17.27;90.77;102305.88;5012128;28;20050;-68
2021/12/21 01:20:32;;;;;;;1.52;1.40;;;;;;;-17.37;90.45;102301.75;5012157;28;20572;-68
2021/12/21 01:25:46;;;;;;;1.20;1.20;;;;;;;-17.38;91.50;102306.63;5007420;28;20407;-68
2021/12/21 01:28:20;;;;;;;1.70;1.60;;;;;;;-17.44;90.45;102311.97;5012140;28;20115;-68
2021/12/21 01:30:55;;;;;;;2.13;1.10;;;;;;;-17.68;89.66;102313.25;5011930;28;20098;-63
2021/12/21 01:33:37;;;;;;;2.08;1.50;;;;;;;-17.72;90.82;102315.34;5011991;28;20052;-67
2021/12/21 01:36:14;;;;;;;1.55;1.45;;;;;;;-17.78;90.16;102313.25;5012331;28;20046;-66
2021/12/21 01:38:49;;;;;;;1.67;1.58;;;;;;;-17.90;90.91;102308.16;5011710;28;20049;-68
2021/12/21 01:41:26;;;;;;;1.30;1.25;;;;;;;-17.78;91.71;102305.78;5012137;28;20057;-68
2021/12/21 01:44:05;;;;;;;1.58;1.48;;;;;;;-17.90;91.02;102317.22;5011982;28;20045;-67
2021/12/21 01:49:39;;;;;;;1.35;1.25;;;;;;;-17.72;90.48;102310.38;5011917;28;20820;-70
2021/12/21 01:52:07;;;;;;;1.92;1.50;;;;;;;-17.85;90.70;102306.94;5012151;28;20134;-66
2021/12/21 01:54:34;;;;;;;1.60;1.50;;;;;;;-17.89;90.93;102311.50;5012023;28;20041;-66
2021/12/21 01:57:00;;;;;;;1.58;1.48;;;;;;;-18.03;90.46;102313.72;5011840;28;20053;-67
2021/12/21 01:59:29;;;;;;;1.70;1.60;;;;;;;-18.02;91.45;102314.56;5012065;28;20046;-68
2021/12/21 02:01:56;;;;;;;1.70;1.60;;;;;;;-17.87;91.28;102322.47;5011710;28;20056;-66
2021/12/21 02:04:23;;;;;;;1.50;1.40;;;;;;;-17.89;90.23;102324.81;5013908;28;20400;-67
2021/12/21 02:06:49;;;;;;;1.80;1.70;;;;;;;-18.02;89.83;102324.50;5015154;28;20049;-63
2021/12/21 02:09:19;;;;;;;1.70;1.60;;;;;;;-18.11;90.10;102328.69;5015139;28;20042;-67
2021/12/21 02:11:46;;;;;;;1.77;1.67;;;;;;;-18.12;90.62;102336.91;5015074;28;20045;-67
2021/12/21 02:14:13;;;;;;;2.20;1.38;;;;;;;-18.11;89.47;102337.00;5015164;28;20046;-68
2021/12/21 02:16:52;;;;;;;1.60;1.50;;;;;;;-18.20;89.59;102343.69;5015274;28;20053;-69
2021/12/21 02:19:24;;;;;;;7.22;1.95;;;;;;;-18.18;90.32;102343.81;5015021;28;20077;-67
2021/12/21 02:21:56;;;;;;;1.63;1.50;;;;;;;-18.16;89.99;102343.19;5014585;28;20107;-67
2021/12/21 02:24:29;;;;;;;1.67;1.58;;;;;;;-18.20;90.92;102333.75;5014873;28;20045;-68
2021/12/21 02:27:06;;;;;;;1.50;1.40;;;;;;;-18.15;91.05;102329.19;5014912;28;20125;-68
2021/12/21 02:29:35;;;;;;;1.60;1.50;;;;;;;-18.15;90.63;102334.16;5014992;28;20567;-67
2021/12/21 02:32:04;;;;;;;1.52;1.42;;;;;;;-18.33;89.56;102335.94;5014955;28;20056;-69
2021/12/21 02:34:31;;;;;;;1.67;1.58;;;;;;;-18.35;90.37;102329.94;5014685;28;20046;-68
2021/12/21 02:36:59;;;;;;;1.73;1.63;;;;;;;-18.35;90.71;102332.44;5014680;28;20058;-69
2021/12/21 02:39:28;;;;;;;2.90;2.03;;;;;;;-18.14;90.42;102331.78;5014465;28;20512;-66
2021/12/21 02:41:55;;;;;;;2.72;2.30;;;;;;;-18.33;89.49;102344.25;5014652;28;20057;-65
2021/12/21 02:44:22;;;;;;;2.63;2.42;;;;;;;-18.12;90.16;102340.25;5014646;28;20416;-67
2021/12/21 02:46:49;;;;;;;3.33;2.53;;;;;;;-18.38;89.00;102347.06;5014681;28;20049;-65
2021/12/21 02:49:18;;;;;;;3.20;2.28;;;;;;;-18.58;88.96;102350.31;5014601;28;20057;-63
2021/12/21 02:51:47;;;;;;;2.38;2.25;;;;;;;-18.60;89.78;102346.81;5014533;28;20049;-64
2021/12/21 02:54:17;;;;;;;2.22;2.03;;;;;;;-18.75;89.76;102348.84;5014420;28;20042;-64
2021/12/21 02:56:44;;;;;;;6.55;2.15;;;;;;;-18.64;90.46;102347.28;5014330;28;20432;-63
2021/12/21 02:59:11;;;;;;;5.50;1.80;;;;;;;-18.64;90.28;102348.16;5014480;28;20042;-62
2021/12/21 03:01:38;;;;;;;2.25;1.88;;;;;;;-18.58;89.87;102345.34;5014603;28;20137;-70
2021/12/21 03:04:06;;;;;;;2.25;2.05;;;;;;;-18.66;89.79;102333.13;5014459;28;20060;-65
2021/12/21 03:09:37;;;;;;;1.58;1.50;;;;;;;-18.78;90.45;102333.69;5013729;28;20053;-68
2021/12/21 03:12:14;;;;;;;3.28;1.90;;;;;;;-18.86;90.18;102335.50;5014268;28;20050;-66
2021/12/21 03:14:41;;;;;;;1.92;1.73;;;;;;;-18.84;90.33;102340.59;5013923;28;20074;-65
2021/12/21 03:17:10;;;;;;;2.28;2.00;;;;;;;-18.89;89.85;102338.56;5014151;28;20476;-70
2021/12/21 03:19:37;;;;;;;2.58;1.90;;;;;;;-18.91;89.46;102337.56;5014314;28;20076;-69
2021/12/21 03:22:04;;;;;;;;;;;;;;;-18.99;88.79;102335.16;5014102;28;20057;-63
2021/12/21 03:24:32;;;;;;;;;;;;;;;-18.90;88.45;102336.84;5014332;28;20387;-66
2021/12/21 03:26:59;;;;;;;1.65;1.55;;;;;;;-18.98;88.67;102342.75;5013980;28;19926;-66
2021/12/21 03:29:26;;;;;;;2.03;1.85;;;;;;;-19.03;88.32;102338.06;5013870;28;20050;-66
2021/12/21 03:31:53;;;;;;;2.28;2.08;;;;;;;-19.13;90.51;102329.84;5013752;28;20046;-65
2021/12/21 03:34:20;;;;;;;2.10;2.00;;;;;;;-19.09;89.21;102328.47;5013832;28;20056;-65
2021/12/21 03:36:47;;;;;;;1.65;1.55;;;;;;;-18.95;88.53;102329.72;5013724;28;20045;-66
2021/12/21 03:39:18;;;;;;;2.33;2.00;;;;;;;-19.08;89.11;102334.31;5013829;28;20415;-68
2021/12/21 03:41:49;;;;;;;1.20;1.20;;;;;;;-19.09;89.65;102335.94;5013792;28;20445;-66
2021/12/21 03:44:17;;;;;;;2.40;1.67;;;;;;;-19.15;89.14;102327.94;5013671;28;20073;-67
2021/12/21 03:46:47;;;;;;;2.30;2.15;;;;;;;-19.21;88.90;102327.38;5013638;28;20042;-64
2021/12/21 03:49:50;;;;;;;3.65;2.47;;;;;;;-19.23;90.02;102327.25;5013558;28;20046;-64
2021/12/21 03:52:11;;;;;;;;;;;;;;;-19.40;90.18;102333.19;5013777;28;20129;-66
2021/12/21 03:54:40;;;;;;;1.27;1.17;;;;;;;-19.42;89.72;102338.72;5013757;28;19936;-66
2021/12/21 03:57:08;;;;;;;2.78;2.55;;;;;;;-19.27;90.20;102331.81;5013358;28;20068;-68
2021/12/21 03:59:35;;;;;;;1.52;1.45;;;;;;;-19.05;89.81;102328.03;5013358;28;20052;-66
2021/12/21 04:02:02;;;;;;;;;;;;;;;-18.91;88.71;102326.75;5013556;28;20049;-69
2021/12/21 04:04:29;;;;;;;1.05;1.05;;;;;;;-19.07;88.72;102327.03;5013291;28;19928;-69
2021/12/21 04:06:56;;;;;;;1.30;1.30;;;;;;;-18.84;88.25;102323.22;5013210;28;20080;-69
2021/12/21 04:09:23;;;;;;;1.15;1.15;;;;;;;-18.95;87.79;102329.72;5013313;28;20511;-64
2021/12/21 04:11:50;;;;;;;1.33;1.27;;;;;;;-18.92;87.60;102337.44;5013070;28;20473;-70
2021/12/21 04:14:19;;;;;;;;;;;;;;;-18.90;87.56;102333.50;5013573;28;20057;-69
2021/12/21 04:16:46;;;;;;;2.05;1.95;;;;;;;-18.75;86.93;102333.94;5013032;28;19987;-64
2021/12/21 04:19:13;;;;;;;1.70;1.60;;;;;;;-18.70;87.38;102337.69;5013202;28;20049;-68
2021/12/21 04:21:40;;;;;;;1.77;1.67;;;;;;;-18.77;87.04;102347.88;5013208;28;20500;-63
2021/12/21 04:24:08;;;;;;;3.05;2.03;;;;;;;-18.89;88.87;102341.06;5012967;28;20054;-67
2021/12/21 04:26:34;;;;;;;1.63;1.33;;;;;;;-18.97;89.40;102348.56;5012189;28;20057;-66
2021/12/21 04:29:01;;;;;;;1.35;1.25;;;;;;;-19.11;89.25;102349.78;5013006;28;20046;-69
2021/12/21 04:31:30;;;;;;;1.42;1.33;;;;;;;-19.11;89.26;102348.22;5012717;28;20400;-68
2021/12/21 04:33:56;;;;;;;1.52;1.45;;;;;;;-19.23;90.40;102347.09;5012534;28;20050;-65
2021/12/21 04:36:23;;;;;;;1.90;1.80;;;;;;;-19.14;89.08;102352.88;5012693;28;20417;-67
2021/12/21 04:38:51;;;;;;;1.55;1.45;;;;;;;-19.27;89.31;102356.59;5012718;28;20061;-66
2021/12/21 04:41:23;;;;;;;3.13;1.75;;;;;;;-19.20;88.93;102353.94;5013155;28;20111;-65
2021/12/21 04:43:51;;;;;;;1.70;1.60;;;;;;;-19.29;89.10;102353.09;5012906;28;20046;-66
2021/12/21 04:46:19;;;;;;;1.60;1.50;;;;;;;-19.37;89.09;102358.25;5012624;28;20484;-64
2021/12/21 04:48:47;;;;;;;;;;;;;;;-19.34;89.04;102353.59;5013246;28;20056;-65
2021/12/21 04:51:14;;;;;;;1.23;1.23;;;;;;;-19.38;88.86;102356.50;5012844;28;19922;-68
2021/12/21 04:53:41;;;;;;;1.50;1.40;;;;;;;-19.42;89.26;102361.91;5012486;28;20487;-65
2021/12/21 04:56:08;;;;;;;1.65;1.55;;;;;;;-19.25;89.45;102360.97;5012541;28;20050;-64
2021/12/21 04:58:36;;;;;;;1.58;1.50;;;;;;;-19.39;88.99;102362.22;5012440;28;20053;-68
2021/12/21 05:01:04;;;;;;;1.90;1.80;;;;;;;-19.39;90.28;102367.19;5012447;28;20057;-68
2021/12/21 05:03:31;;;;;;;4.32;2.05;;;;;;;-19.16;89.64;102363.41;5012403;28;20046;-69
2021/12/21 05:06:00;;;;;;;3.45;1.95;;;;;;;-19.04;90.73;102352.09;5012373;28;20050;-69
2021/12/21 05:08:32;;;;;;;1.65;1.55;;;;;;;-18.94;89.38;102351.31;5012627;28;20049;-69
2021/12/21 05:11:02;;;;;;;1.30;1.25;;;;;;;-18.87;89.69;102343.69;5012357;28;20134;-69
2021/12/21 05:13:31;;;;;;;1.40;1.35;;;;;;;-18.97;89.27;102349.44;5012434;28;20180;-69
2021/12/21 05:15:58;;;;;;;2.50;1.50;;;;;;;-18.70;89.22;102346.03;5012243;28;20480;-69
2021/12/21 05:18:26;;;;;;;3.25;2.40;;;;;;;-18.90;88.28;102351.72;5012164;28;20049;-67
2021/12/21 05:20:53;;;;;;;1.98;1.77;;;;;;;-19.03;89.57;102350.47;5012099;28;20530;-67
2021/12/21 05:23:22;;;;;;;1.45;1.30;;;;;;;-18.85;88.88;102359.59;5012839;28;20050;-67
2021/12/21 05:25:49;;;;;;;1.38;1.38;;;;;;;-18.88;88.58;102359.28;5012497;28;20046;-68
2021/12/21 05:28:17;;;;;;;1.25;1.25;;;;;;;-18.80;88.54;102359.97;5012287;28;20050;-68
2021/12/21 05:30:45;;;;;;;1.88;1.77;;;;;;;-18.79;88.31;102360.13;5012457;28;20053;-68
2021/12/21 05:33:13;;;;;;;1.42;1.35;;;;;;;-18.79;88.50;102361.75;5011910;28;20061;-65
2021/12/21 05:35:40;;;;;;;1.30;1.30;;;;;;;-18.68;88.40;102364.38;5012004;28;20551;-66
2021/12/21 05:38:10;;;;;;;1.50;1.40;;;;;;;-18.73;88.40;102363.09;5014016;28;20061;-68
2021/12/21 05:40:41;;;;;;;1.92;1.50;;;;;;;-18.64;89.35;102357.22;5015687;28;20484;-69
2021/12/21 05:43:10;;;;;;;1.35;1.33;;;;;;;-18.48;89.25;102372.72;5015727;28;20081;-64
2021/12/21 05:45:38;;;;;;;2.90;1.77;;;;;;;-18.56;89.32;102363.72;5015629;28;20050;-69
2021/12/21 05:48:05;;;;;;;2.42;1.92;;;;;;;-18.48;88.99;102368.63;5015856;28;20053;-63
2021/12/21 05:50:33;;;;;;;2.42;2.05;;;;;;;-18.36;88.99;102375.41;5015421;28;20416;-68
2021/12/21 05:52:59;;;;;;;1.02;1.02;;;;;;;-18.29;89.12;102370.22;5015512;28;20045;-70
2021/12/21 05:55:26;;;;;;;2.28;1.50;;;;;;;-18.24;89.88;102369.88;5015801;28;20042;-67
2021/12/21 05:57:54;;;;;;;1.10;1.10;;;;;;;-18.23;89.04;102379.09;5015698;28;20050;-68
2021/12/21 06:00:23;;;;;;;1.30;1.20;;;;;;;-18.19;89.37;102379.34;5015600;28;20046;-69
2021/12/21 06:02:50;;;;;;;1.00;1.00;;;;;;;-18.05;90.03;102373.97;5015691;28;20050;-66
2021/12/21 06:05:17;;;;;;;1.85;1.75;;;;;;;-18.22;89.87;102372.50;5015699;28;20057;-69
2021/12/21 06:07:45;;;;;;;1.83;1.73;;;;;;;-18.25;90.19;102375.59;5015320;28;20057;-67
2021/12/21 06:10:16;;;;;;;2.00;1.90;;;;;;;-18.17;90.42;102375.38;5015336;28;20050;-63
2021/12/21 06:13:09;;;;;;;2.10;2.00;;;;;;;-18.24;89.75;102369.00;5015190;28;20053;-66
2021/12/21 06:15:46;;;;;;;1.80;1.70;;;;;;;-18.29;89.70;102371.09;5015440;28;20046;-64
2021/12/21 06:26:24;;;;;;;1.70;1.60;;;;;;;-18.20;88.91;102368.53;5012495;28;20042;-64
2021/12/21 06:28:51;;;;;;;3.50;2.22;;;;;;;-18.26;90.22;102371.38;5015327;28;20049;-64
2021/12/21 06:31:20;;;;;;;;;;;;;;;-18.12;89.23;102370.06;5015320;28;20489;-64
2021/12/21 06:33:47;;;;;;;1.38;1.38;;;;;;;-18.12;89.32;102370.06;5014825;28;19932;-64
2021/12/21 06:36:14;;;;;;;1.10;1.10;;;;;;;-18.16;89.00;102368.03;5014835;28;20046;-64
2021/12/21 06:38:42;;;;;;;2.22;1.80;;;;;;;-18.03;89.30;102365.91;5014637;28;20473;-64
2021/12/21 06:41:10;;;;;;;1.92;1.83;;;;;;;-18.23;88.93;102370.78;5014762;28;20065;-65
2021/12/21 06:43:37;;;;;;;2.30;2.10;;;;;;;-18.28;88.83;102371.97;5014563;28;20396;-63
2021/12/21 06:46:11;;;;;;;1.40;1.40;;;;;;;-18.48;88.66;102370.22;5014692;28;20054;-65
2021/12/21 06:51:31;;;;;;;3.95;1.98;;;;;;;-18.62;89.82;102375.59;5014857;28;20049;-64
2021/12/21 06:53:59;;;;;;;1.67;1.58;;;;;;;-18.55;90.45;102365.47;5014599;28;20049;-64
2021/12/21 06:56:27;;;;;;;2.42;2.08;;;;;;;-18.64;89.81;102367.16;5014482;28;20045;-64
2021/12/21 06:58:55;;;;;;;2.38;2.03;;;;;;;-18.67;90.04;102368.63;5014420;28;20058;-64
2021/12/21 07:01:22;;;;;;;1.55;1.40;;;;;;;-18.59;89.50;102363.47;5014533;28;20488;-63
2021/12/21 07:03:51;;;;;;;1.73;1.63;;;;;;;-18.58;89.76;102375.13;5014428;28;20050;-63
2021/12/21 07:06:19;;;;;;;1.80;1.70;;;;;;;-18.46;89.53;102366.28;5014301;28;20045;-63
2021/12/21 07:08:53;;;;;;;2.38;2.17;;;;;;;-18.54;88.39;102380.50;5014323;28;20503;-64
2021/12/21 07:11:26;;;;;;;1.77;1.52;;;;;;;-18.60;89.47;102376.59;5014513;28;20480;-64
2021/12/21 07:19:23;;;;;;;1.60;1.50;;;;;;;-18.33;89.52;102381.50;5014198;28;20089;-63
2021/12/21 07:21:50;;;;;;;1.67;1.50;;;;;;;-18.33;89.42;102381.50;5014636;28;20503;-64
2021/12/21 07:24:17;;;;;;;3.80;1.85;;;;;;;-18.27;88.25;102384.50;5014010;28;20488;-63
2021/12/21 07:26:44;;;;;;;1.35;1.25;;;;;;;-18.30;88.57;102378.41;5014050;28;20050;-63
2021/12/21 07:29:10;;;;;;;2.75;1.95;;;;;;;-18.31;87.94;102382.53;5013838;28;20488;-63
2021/12/21 07:31:37;;;;;;;3.45;2.58;;;;;;;-18.35;88.30;102374.66;5013779;28;20519;-64
2021/12/21 07:34:05;;;;;;;1.85;1.75;;;;;;;-18.27;89.11;102387.00;5013745;28;20503;-63
2021/12/21 07:36:34;;;;;;;2.22;1.75;;;;;;;-18.36;89.16;102388.69;5013935;28;20053;-63
2021/12/21 07:39:03;;;;;;;1.45;1.42;;;;;;;-18.33;89.64;102393.94;5013680;28;20050;-64
2021/12/21 07:41:30;;;;;;;1.48;1.38;;;;;;;-18.17;89.56;102397.75;5013853;28;20046;-64
2021/12/21 07:43:57;;;;;;;2.13;1.75;;;;;;;-18.23;89.77;102405.56;5013633;28;20428;-65
2021/12/21 07:46:24;;;;;;;;;;;;;;;-18.27;89.59;102406.00;5014092;28;20050;-64
2021/12/21 07:48:51;;;;;;;1.40;1.33;;;;;;;-18.22;89.82;102407.28;5013461;28;20367;-63
2021/12/21 07:51:18;;;;;;;1.80;1.70;;;;;;;-18.11;89.91;102409.06;5013544;28;20057;-64
2021/12/21 07:53:47;;;;;;;;;;;;;;;-18.18;89.20;102405.94;5013802;28;20054;-63
2021/12/21 07:56:16;;;;;;;1.58;1.50;;;;;;;-18.16;89.33;102411.91;5013553;28;19964;-63
2021/12/21 07:58:44;;;;;;;1.83;1.73;;;;;;;-18.30;88.64;102406.63;5013469;28;20077;-63
2021/12/21 08:01:11;;;;;;;1.13;1.13;;;;;;;-18.31;88.94;102412.34;5012299;28;20045;-64
2021/12/21 08:03:39;;;;;;;1.67;1.50;;;;;;;-18.25;88.75;102405.41;5013428;28;20042;-64
2021/12/21 08:06:08;;;;;;;4.80;2.17;;;;;;;-18.23;88.73;102408.03;5013264;28;20571;-63
2021/12/21 08:08:39;;;;;;;1.85;1.75;;;;;;;-18.35;89.21;102415.28;5013082;28;20050;-63
2021/12/21 08:11:15;;;;;;;1.40;1.35;;;;;;;-18.35;87.73;102421.88;5013177;28;20451;-63
2021/12/21 08:13:43;;;;;;;1.98;1.88;;;;;;;-18.35;88.22;102420.25;5012870;28;20057;-63
2021/12/21 08:16:11;;;;;;;2.17;1.98;;;;;;;-18.42;88.71;102420.44;5012996;28;20074;-64
2021/12/21 08:18:38;;;;;;;1.92;1.83;;;;;;;-18.12;88.52;102421.38;5013051;28;20061;-64
2021/12/21 08:21:05;;;;;;;2.22;2.10;;;;;;;-18.21;88.07;102413.97;5012914;28;20485;-64
2021/12/21 08:23:32;;;;;;;1.98;1.88;;;;;;;-18.27;87.89;102419.31;5013513;28;20054;-64
2021/12/21 08:25:59;;;;;;;1.52;1.45;;;;;;;-18.17;88.16;102422.59;5012936;28;20046;-64
2021/12/21 08:28:27;;;;;;;;;;;;;;;-18.16;89.48;102414.41;5013319;28;20065;-64
2021/12/21 08:30:54;;;;;;;3.92;2.08;;;;;;;-18.14;89.20;102418.75;5012922;28;19932;-63
2021/12/21 08:33:21;;;;;;;1.60;1.50;;;;;;;-18.06;88.15;102414.44;5012801;28;20408;-64
2021/12/21 08:35:48;;;;;;;1.85;1.75;;;;;;;-18.23;88.35;102408.03;5012554;28;20054;-63
2021/12/21 08:38:17;;;;;;;2.17;2.00;;;;;;;-18.35;88.48;102415.28;5012598;28;20042;-63
2021/12/21 08:40:49;;;;;;;3.35;2.55;;;;;;;-18.20;89.24;102414.88;5012595;28;20516;-64
2021/12/21 08:43:18;;;;;;;2.10;1.67;;;;;;;-18.20;89.21;102415.75;5012636;28;20053;-64
2021/12/21 08:45:50;;;;;;;2.08;1.88;;;;;;;-18.28;89.01;102420.06;5012548;28;20484;-63
2021/12/21 08:48:18;;;;;;;2.58;2.03;;;;;;;-18.14;88.79;102417.88;5012582;28;20050;-64
2021/12/21 08:50:46;;;;;;;1.88;1.75;;;;;;;-18.18;88.29;102418.34;5012465;28;20060;-63
2021/12/21 08:53:14;;;;;;;1.63;1.52;;;;;;;-18.07;88.90;102417.69;5012439;28;20064;-65
2021/12/21 08:55:41;;;;;;;1.60;1.50;;;;;;;-17.95;88.52;102423.72;5012422;28;20050;-63
2021/12/21 08:58:08;;;;;;;1.63;1.50;;;;;;;-18.02;89.50;102418.97;5012537;28;20515;-63
2021/12/21 09:00:36;;;;;;;2.28;1.95;;;;;;;-17.83;89.45;102422.28;5012564;28;20053;-63
2021/12/21 09:03:04;;;;;;;1.85;1.55;;;;;;;-17.79;89.54;102419.28;5012611;28;20108;-63
2021/12/21 09:05:31;;;;;;;2.35;2.15;;;;;;;-17.81;89.62;102412.47;5012454;28;20042;-64
2021/12/21 09:07:59;;;;;;;2.95;1.90;;;;;;;-17.83;89.36;102413.94;5012385;28;20050;-64
2021/12/21 09:10:27;;;;;;;1.52;1.45;;;;;;;-17.64;89.50;102412.28;5012875;28;20408;-66
2021/12/21 09:12:54;;;;;;;1.90;1.80;;;;;;;-17.68;88.86;102420.19;5014136;28;20077;-64
2021/12/21 09:15:21;;;;;;;;;;;;;;;-17.77;88.82;102416.94;5016850;28;20054;-68
2021/12/21 09:17:48;;;;;;;1.25;1.25;;;;;;;-17.65;88.92;102417.97;5016346;28;19921;-65
2021/12/21 09:20:19;;;;;;;1.20;1.20;;;;;;;-17.46;88.84;102417.06;5016157;28;20054;-67
2021/12/21 09:22:46;;;;;;;2.92;2.20;;;;;;;-17.50;89.22;102415.91;5016637;28;20085;-69
2021/12/21 09:25:14;;;;;;;1.58;1.50;;;;;;;-17.37;88.63;102413.72;5016258;28;20615;-65
2021/12/21 09:27:41;;;;;;;2.50;2.25;;;;;;;-17.59;89.11;102425.97;5016185;28;20050;-68
2021/12/21 09:30:11;;;;;;;3.53;2.33;;;;;;;-17.68;89.99;102425.16;5016102;28;20050;-64
2021/12/21 09:32:38;;;;;;;1.45;1.35;;;;;;;-17.48;89.10;102426.00;5016060;28;20389;-64
2021/12/21 09:35:05;;;;;;;;;;;;;;;-17.38;88.54;102418.56;5016538;28;20050;-64
2021/12/21 09:37:34;;;;;;;4.15;2.83;;;;;;;-17.45;88.26;102414.69;5016370;28;19921;-64
2021/12/21 09:40:02;;;;;;;1.70;1.60;;;;;;;-17.41;88.89;102419.19;5015990;28;20049;-68
2021/12/21 09:42:31;;;;;;;4.38;2.55;;;;;;;-17.48;88.38;102418.53;5015920;28;20049;-69
2021/12/21 09:44:59;;;;;;;1.65;1.55;;;;;;;-17.35;88.04;102419.69;5015960;28;20053;-64
2021/12/21 09:47:27;;;;;;;3.35;1.75;;;;;;;-17.39;88.42;102420.19;5015792;28;20057;-68
2021/12/21 09:49:55;;;;;;;2.45;2.25;;;;;;;-17.31;88.45;102422.44;5016079;28;20449;-69
2021/12/21 09:52:24;;;;;;;1.42;1.23;;;;;;;-17.18;89.02;102428.59;5015772;28;20054;-64
2021/12/21 09:54:53;;;;;;;3.22;2.28;;;;;;;-17.27;89.62;102424.44;5015783;28;20069;-69
2021/12/21 09:57:21;;;;;;;3.63;2.40;;;;;;;-17.26;90.40;102418.72;5015610;28;20042;-69
2021/12/21 09:59:50;;;;;;;7.45;2.40;;;;;;;-17.24;89.56;102424.69;5015422;28;20137;-69
2021/12/21 10:02:19;;;;;;;1.30;1.30;;;;;;;-17.05;89.81;102417.16;5015624;28;20049;-70
2021/12/21 10:04:47;;;;;;;7.45;2.15;;;;;;;-17.27;91.04;102425.31;5015686;28;20042;-70
2021/12/21 10:07:15;;;;;;;3.10;1.95;;;;;;;-17.25;90.15;102422.97;5015659;28;20050;-68
2021/12/21 10:09:43;;;;;;;2.90;2.28;;;;;;;-17.40;91.32;102425.91;5015508;28;20050;-64
2021/12/21 10:12:14;;;;;;;1.52;1.45;;;;;;;-17.19;90.45;102416.88;5015280;28;20058;-67
2021/12/21 10:14:42;;;;;;;2.75;2.53;;;;;;;-17.16;90.13;102418.72;5015335;28;20053;-69
2021/12/21 10:17:11;;;;;;;3.60;2.42;;;;;;;-17.13;90.49;102424.84;5015188;28;20061;-70
2021/12/21 10:19:39;;;;;;;3.10;2.80;;;;;;;-17.02;90.02;102422.38;5015420;28;20049;-68
2021/12/21 10:22:14;;;;;;;4.78;2.42;;;;;;;-17.04;89.56;102421.38;5015804;28;20053;-65
2021/12/21 10:24:47;;;;;;;4.97;2.67;;;;;;;-17.09;90.15;102425.09;5014289;28;20054;-64
2021/12/21 10:27:18;;;;;;;2.33;1.23;;;;;;;-16.98;90.02;102421.88;5014918;28;20050;-69
2021/12/21 10:29:48;;;;;;;2.65;2.38;;;;;;;-17.11;90.36;102427.47;5015026;28;20500;-68
2021/12/21 10:32:19;;;;;;;3.85;2.47;;;;;;;-17.01;89.81;102429.09;5014952;28;20053;-70
2021/12/21 10:34:55;;;;;;;3.33;3.03;;;;;;;-16.96;89.56;102433.72;5014777;28;20408;-70
2021/12/21 10:37:26;;;;;;;4.13;2.50;;;;;;;-16.95;90.02;102430.50;5014650;28;20045;-69
2021/12/21 10:40:06;;;;;;;3.05;2.08;;;;;;;-17.05;89.20;102428.00;5014700;28;20046;-68
2021/12/21 10:42:44;;;;;;;3.33;2.78;;;;;;;-16.99;89.34;102427.63;5014695;28;20050;-69
2021/12/21 10:45:11;;;;;;;2.40;2.15;;;;;;;-16.98;91.12;102440.16;5014826;28;20041;-69
2021/12/21 10:47:38;;;;;;;;;;;;;;;-16.98;90.89;102439.31;5015169;28;20046;-64
2021/12/21 10:50:06;;;;;;;1.88;1.67;;;;;;;-16.91;90.72;102439.06;5014742;28;19921;-64
2021/12/21 10:52:33;;;;;;;2.50;2.22;;;;;;;-16.91;90.93;102437.44;5014905;28;20646;-68
2021/12/21 10:54:59;;;;;;;2.25;2.10;;;;;;;-16.81;91.08;102435.72;5014318;28;20042;-70
2021/12/21 10:57:31;;;;;;;2.80;2.50;;;;;;;-17.01;91.16;102447.38;5014528;28;20054;-69
2021/12/21 11:00:01;;;;;;;3.05;2.60;;;;;;;-17.06;90.89;102450.25;5014370;28;20053;-70
2021/12/21 11:02:32;;;;;;;5.07;2.35;;;;;;;-17.06;91.41;102437.81;5014387;28;20060;-68
2021/12/21 11:05:01;;;;;;;3.78;2.13;;;;;;;-16.94;91.48;102444.66;5014523;28;20058;-68
2021/12/21 11:07:33;;;;;;;4.93;2.80;;;;;;;-16.92;90.62;102444.81;5014413;28;20129;-70
2021/12/21 11:10:10;;;;;;;4.22;2.15;;;;;;;-16.79;91.19;102436.72;5014148;28;20045;-68
2021/12/21 11:12:43;;;;;;;3.50;2.35;;;;;;;-16.80;91.96;102435.84;5014207;28;20076;-69
2021/12/21 11:15:13;;;;;;;12.65;2.92;;;;;;;-16.79;91.51;102434.25;5014090;28;20404;-63
2021/12/21 11:17:41;;;;;;;4.10;2.28;;;;;;;-16.65;90.75;102426.22;5014129;28;20415;-66
2021/12/21 11:20:10;;;;;;;4.35;2.63;;;;;;;-16.56;90.07;102422.00;5014315;28;20046;-63
2021/12/21 11:22:40;;;;;;;4.80;3.95;;;;;;;-16.71;89.78;102426.59;5014308;28;20058;-68
2021/12/21 11:25:09;;;;;;;6.22;3.22;;;;;;;-16.78;91.09;102414.44;5014101;28;20049;-68
2021/12/21 11:27:37;;;;;;;4.78;3.20;;;;;;;-16.78;92.31;102419.41;5014252;28;20062;-68
2021/12/21 11:30:07;;;;;;;3.53;3.15;;;;;;;-16.60;91.29;102417.50;5014175;28;20064;-69
2021/12/21 11:32:39;;;;;;;9.27;3.00;;;;;;;-16.61;90.04;102414.91;5014006;28;20042;-68
2021/12/21 11:37:53;;;;;;;3.08;2.78;;;;;;;-16.42;91.24;102417.25;5014063;28;20484;-69
2021/12/21 11:40:23;;;;;;;3.67;3.13;;;;;;;-16.38;91.68;102410.16;5013577;28;20057;-68
2021/12/21 11:43:01;;;;;;;6.25;3.38;;;;;;;-16.46;91.26;102396.22;5013407;28;20050;-63
2021/12/21 11:45:31;;;;;;;11.02;3.75;;;;;;;-16.52;90.21;102410.66;5013661;28;20069;-65
2021/12/21 11:48:08;;;;;;;8.38;3.58;;;;;;;-16.63;90.91;102403.94;5013431;28;20046;-69
2021/12/21 11:50:35;;;;;;;6.47;3.53;;;;;;;-16.65;93.15;102416.25;5013486;28;20053;-64
2021/12/21 11:53:05;;;;;;;7.50;3.13;;;;;;;-16.56;90.87;102412.03;5013577;28;20054;-64
2021/12/21 11:55:34;;;;;;;12.73;3.97;;;;;;;-16.56;91.57;102419.50;5013604;28;20057;-64
2021/12/21 11:58:14;;;;;;;4.40;3.45;;;;;;;-16.60;91.82;102416.63;5014736;28;20076;-64
2021/12/21 12:00:48;;;;;;;5.13;2.90;;;;;;;-16.64;90.81;102415.53;5014169;28;20145;-63